Time;durP1;ratioP1;P1;durP2;ratioP2;P2;SDS_P1;SDS_P2;PMS_P1;PMS_P2;Temp;Humidity;BMP_temperature;BMP_pressure;BME280_temperature;BME280_humidity;BME280_pressure;Samples;Min_cycle;Max_cycle;Signal;HPM_P1;HPM_P2
2021/01/27 00:00:30;;;;;;;40.75;15.27;;;;;;;9.68;81.15;100051.63;5014203;28;20376;-80
2021/01/27 00:02:56;;;;;;;38.70;16.60;;;;;;;9.65;80.56;100047.44;5025789;28;20025;-80
2021/01/27 00:05:44;;;;;;;33.70;15.38;;;;;;;9.82;80.18;100053.28;5014707;28;20060;-80
2021/01/27 00:08:10;;;;;;;38.70;15.77;;;;;;;10.04;79.60;100052.59;5014790;28;20037;-79
2021/01/27 00:10:36;;;;;;;29.60;14.32;;;;;;;10.22;78.91;100066.19;5014491;28;20026;-80
2021/01/27 00:13:03;;;;;;;36.00;14.93;;;;;;;10.08;79.16;100060.13;5010073;28;20103;-80
2021/01/27 00:15:32;;;;;;;27.88;13.25;;;;;;;9.98;79.90;100053.03;5014105;28;20026;-79
2021/01/27 00:17:58;;;;;;;26.15;12.38;;;;;;;10.15;79.65;100050.06;5012979;28;20105;-80
2021/01/27 00:20:25;;;;;;;25.35;11.80;;;;;;;10.07;79.32;100057.63;5013139;28;20056;-79
2021/01/27 00:22:52;;;;;;;22.10;10.70;;;;;;;9.82;80.09;100048.88;5014560;28;20080;-80
2021/01/27 00:25:21;;;;;;;24.73;11.35;;;;;;;9.85;80.62;100060.94;5013769;28;20400;-80
2021/01/27 00:27:46;;;;;;;24.70;10.18;;;;;;;9.82;80.46;100050.66;5014597;28;20034;-80
2021/01/27 00:30:19;;;;;;;20.17;9.18;;;;;;;9.91;80.83;100069.22;5013675;28;20026;-80
2021/01/27 00:32:46;;;;;;;20.90;9.15;;;;;;;10.02;79.75;100057.94;5013902;28;20048;-79
2021/01/27 00:35:12;;;;;;;16.85;8.35;;;;;;;10.18;79.20;100067.34;5013511;28;20018;-79
2021/01/27 00:37:37;;;;;;;22.88;8.98;;;;;;;9.99;79.63;100070.44;5013718;28;20029;-80
2021/01/27 00:40:05;;;;;;;20.13;9.82;;;;;;;10.21;79.21;100059.25;5012054;28;20370;-80
2021/01/27 00:42:30;;;;;;;19.13;9.02;;;;;;;10.35;78.61;100068.78;5011722;28;20030;-80
2021/01/27 00:44:55;;;;;;;16.15;9.35;;;;;;;10.35;78.81;100071.41;5013194;28;20040;-79
2021/01/27 00:47:21;;;;;;;22.45;9.55;;;;;;;10.17;79.63;100065.66;5012837;28;20036;-79
2021/01/27 00:49:46;;;;;;;22.65;9.63;;;;;;;10.34;78.12;100057.44;5014139;28;20026;-79
2021/01/27 00:52:12;;;;;;;25.00;9.68;;;;;;;10.33;78.60;100042.66;5012932;28;20034;-80
2021/01/27 00:54:37;;;;;;;23.80;10.05;;;;;;;10.09;79.36;100032.09;5013228;28;20022;-79
2021/01/27 00:57:04;;;;;;;18.00;9.75;;;;;;;10.32;78.93;100035.72;5013213;28;20037;-80
2021/01/27 00:59:29;;;;;;;15.93;8.88;;;;;;;10.38;78.50;100039.69;5012920;28;20117;-79
2021/01/27 01:01:55;;;;;;;21.30;9.80;;;;;;;10.35;78.77;100032.03;5013127;28;20030;-80
2021/01/27 01:04:20;;;;;;;19.88;10.05;;;;;;;10.45;78.20;100027.81;5014035;28;20029;-80
2021/01/27 01:06:45;;;;;;;15.98;8.98;;;;;;;10.54;77.66;100018.41;5013126;28;20058;-79
2021/01/27 01:09:11;;;;;;;20.00;9.63;;;;;;;10.57;77.43;100049.69;5013908;28;20067;-79
2021/01/27 01:11:36;;;;;;;28.77;9.95;;;;;;;10.62;77.52;100063.31;5011068;28;20543;-79
2021/01/27 01:14:02;;;;;;;20.15;9.68;;;;;;;10.38;77.70;100060.69;5013279;28;20113;-79
2021/01/27 01:16:27;;;;;;;16.73;9.07;;;;;;;10.63;77.12;100059.75;5010855;28;20377;-79
2021/01/27 01:18:52;;;;;;;26.08;10.45;;;;;;;10.44;77.91;100055.81;5012531;28;20430;-79
2021/01/27 01:21:18;;;;;;;21.55;9.48;;;;;;;10.55;77.95;100054.22;5012029;28;20029;-80
2021/01/27 01:23:43;;;;;;;20.77;10.52;;;;;;;10.52;77.69;100052.66;5012174;28;20029;-80
2021/01/27 01:26:09;;;;;;;20.25;10.45;;;;;;;10.39;77.91;100034.34;5012957;28;20026;-79
2021/01/27 01:28:34;;;;;;;20.38;10.57;;;;;;;10.20;78.60;100026.94;5011729;28;20038;-79
2021/01/27 01:31:00;;;;;;;18.45;10.45;;;;;;;10.17;79.02;100036.81;5013153;28;20480;-80
2021/01/27 01:33:29;;;;;;;31.75;12.00;;;;;;;10.17;79.02;100027.19;5013311;28;20369;-80
2021/01/27 01:35:55;;;;;;;17.88;10.50;;;;;;;10.37;78.18;100044.13;5012408;28;20041;-80
2021/01/27 01:38:21;;;;;;;21.50;10.57;;;;;;;10.28;78.92;100039.50;5013391;28;20388;-80
2021/01/27 01:40:50;;;;;;;21.45;10.55;;;;;;;10.52;78.04;100052.66;5012157;28;20030;-79
2021/01/27 01:43:17;;;;;;;26.70;11.90;;;;;;;10.05;79.34;100049.03;5010410;28;20113;-79
2021/01/27 01:45:53;;;;;;;23.23;11.80;;;;;;;10.26;78.68;100047.47;5014625;28;20037;-79
2021/01/27 01:48:30;;;;;;;23.17;11.75;;;;;;;10.32;78.75;100065.44;5011116;28;20159;-80
2021/01/27 01:51:25;;;;;;;24.05;12.23;;;;;;;10.42;78.04;100073.47;5010395;28;20025;-80
2021/01/27 01:53:55;;;;;;;26.25;12.02;;;;;;;9.95;80.13;100071.59;5006356;28;20080;-80
2021/01/27 01:56:25;;;;;;;25.55;12.48;;;;;;;10.11;79.63;100067.81;5012167;28;20388;-80
2021/01/27 01:58:54;;;;;;;26.75;12.13;;;;;;;10.17;78.86;100058.66;5013138;28;20100;-80
2021/01/27 02:01:21;;;;;;;25.10;11.32;;;;;;;10.21;79.39;100065.34;5011161;28;20408;-80
2021/01/27 02:03:48;;;;;;;25.17;11.55;;;;;;;10.19;79.35;100076.88;5012782;28;20079;-80
2021/01/27 02:06:15;;;;;;;23.60;10.73;;;;;;;10.28;79.14;100081.47;5011197;28;20404;-79
2021/01/27 02:08:44;;;;;;;18.02;9.85;;;;;;;10.41;78.51;100078.88;5012592;28;20087;-80
2021/01/27 02:11:14;;;;;;;24.80;10.20;;;;;;;10.23;78.98;100094.94;5011933;28;20084;-80
2021/01/27 02:14:08;;;;;;;22.10;10.13;;;;;;;10.09;79.61;100087.19;5011307;28;20030;-80
2021/01/27 02:16:36;;;;;;;29.27;11.52;;;;;;;10.15;79.46;100092.03;5011532;28;20427;-80
2021/01/27 02:19:19;;;;;;;26.52;11.63;;;;;;;10.06;79.80;100083.00;5012413;28;20112;-80
2021/01/27 02:22:07;;;;;;;21.33;9.70;;;;;;;10.22;79.08;100072.25;5010753;28;20018;-80
2021/01/27 02:24:51;;;;;;;21.48;10.60;;;;;;;10.44;78.48;100065.50;5011628;28;20538;-80
2021/01/27 02:27:23;;;;;;;23.52;9.93;;;;;;;10.50;78.01;100068.53;5009875;28;20360;-80
2021/01/27 02:30:24;;;;;;;25.63;10.45;;;;;;;10.41;78.77;100055.25;4994101;28;20034;-80
2021/01/27 02:33:16;;;;;;;21.83;9.05;;;;;;;10.27;78.65;100058.84;5010581;28;20033;-80
2021/01/27 02:35:49;;;;;;;25.23;10.30;;;;;;;10.01;79.92;100066.78;5011527;28;20088;-80
2021/01/27 02:38:26;;;;;;;21.58;9.98;;;;;;;10.15;79.85;100075.44;5012141;28;20449;-80
2021/01/27 02:40:54;;;;;;;18.42;9.50;;;;;;;10.23;79.10;100073.94;5011243;28;20025;-79
2021/01/27 02:43:26;;;;;;;20.17;9.48;;;;;;;10.08;79.83;100069.78;5011034;28;20061;-80
2021/01/27 02:46:00;;;;;;;21.08;9.32;;;;;;;10.20;79.40;100066.28;5011278;28;20018;-80
2021/01/27 02:48:38;;;;;;;29.70;8.93;;;;;;;10.06;79.64;100069.06;5012114;28;20045;-80
2021/01/27 02:51:12;;;;;;;20.48;8.45;;;;;;;10.03;80.09;100064.03;5012030;28;20026;-80
2021/01/27 02:53:42;;;;;;;17.15;8.30;;;;;;;10.36;79.49;100070.47;5007491;28;20034;-80
2021/01/27 02:56:48;;;;;;;23.83;9.13;;;;;;;10.11;79.70;100069.56;5011301;28;20042;-79
2021/01/27 02:59:22;;;;;;;19.52;7.75;;;;;;;10.06;79.87;100041.03;4991923;28;20522;-80
2021/01/27 03:02:04;;;;;;;17.38;7.35;;;;;;;10.16;79.89;100030.72;5009254;28;20041;-80
2021/01/27 03:04:35;;;;;;;14.05;5.95;;;;;;;10.35;78.91;100029.41;5009460;28;20045;-80
2021/01/27 03:07:02;;;;;;;13.68;6.22;;;;;;;10.18;79.82;100039.31;5009490;28;20107;-80
2021/01/27 03:09:55;;;;;;;9.52;5.32;;;;;;;10.18;79.42;100060.31;5011852;28;20036;-80
2021/01/27 03:12:20;;;;;;;11.65;5.93;;;;;;;10.22;79.69;100085.38;5010789;28;20030;-80
2021/01/27 03:14:46;;;;;;;15.75;5.78;;;;;;;10.38;79.19;100073.81;5012437;28;20491;-80
2021/01/27 03:17:14;;;;;;;9.65;5.15;;;;;;;10.48;78.39;100070.41;5008468;28;20037;-80
2021/01/27 03:19:46;;;;;;;13.23;5.32;;;;;;;10.37;78.54;100067.75;5012020;28;20026;-79
2021/01/27 03:22:16;;;;;;;7.60;4.70;;;;;;;10.52;78.79;100084.16;5010371;28;20026;-80
2021/01/27 03:24:51;;;;;;;30.52;5.78;;;;;;;10.48;78.73;100070.41;5009409;28;20419;-80
2021/01/27 03:27:22;;;;;;;10.40;4.07;;;;;;;10.49;78.08;100060.75;5010048;28;20026;-80
2021/01/27 03:29:52;;;;;;;18.17;4.97;;;;;;;10.37;79.27;100046.75;5011666;28;20104;-80
2021/01/27 03:32:59;;;;;;;8.15;4.82;;;;;;;10.47;78.25;100049.53;5011039;28;20030;-80
2021/01/27 03:35:54;;;;;;;6.07;4.10;;;;;;;10.45;77.93;100070.66;5010884;28;20511;-79
2021/01/27 03:38:34;;;;;;;7.18;4.43;;;;;;;10.34;79.06;100069.75;5007725;28;20087;-80
2021/01/27 03:41:11;;;;;;;6.80;4.25;;;;;;;10.20;79.83;100052.34;5011797;28;20037;-80
2021/01/27 03:44:13;;;;;;;7.40;4.15;;;;;;;10.24;79.05;100043.28;5010532;28;20164;-79
2021/01/27 03:46:45;;;;;;;5.68;3.63;;;;;;;10.57;77.77;100026.06;5009064;28;20033;-80
2021/01/27 03:49:26;;;;;;;6.38;3.65;;;;;;;10.58;77.61;100052.19;5011244;28;20033;-80
2021/01/27 03:52:00;;;;;;;7.17;3.67;;;;;;;10.42;78.21;100067.41;5010698;28;20477;-79
2021/01/27 03:54:31;;;;;;;4.82;3.45;;;;;;;10.49;78.25;100063.38;5010457;28;20290;-80
2021/01/27 03:57:03;;;;;;;5.93;3.70;;;;;;;10.62;77.60;100051.00;5011488;28;20026;-80
2021/01/27 03:59:28;;;;;;;;;;;;;;;10.70;77.63;100053.06;5011752;28;20385;-80
2021/01/27 04:01:57;;;;;;;6.22;3.28;;;;;;;10.29;78.78;100052.53;5010530;28;19947;-80
2021/01/27 04:04:23;;;;;;;5.13;3.25;;;;;;;10.56;78.34;100054.09;5011286;28;20156;-80
2021/01/27 04:06:49;;;;;;;5.53;3.40;;;;;;;10.55;78.50;100047.19;5010241;28;20030;-79
2021/01/27 04:09:15;;;;;;;5.28;3.38;;;;;;;10.61;77.99;100030.97;5009470;28;20476;-80
2021/01/27 04:11:40;;;;;;;6.07;3.63;;;;;;;10.34;79.09;100036.47;5009599;28;20116;-79
2021/01/27 04:14:06;;;;;;;8.52;4.15;;;;;;;10.37;78.66;100045.88;5015478;28;20484;-80
2021/01/27 04:16:33;;;;;;;4.68;3.25;;;;;;;10.49;78.35;100052.88;5013301;28;20336;-79
2021/01/27 04:18:59;;;;;;;5.32;3.65;;;;;;;10.59;78.08;100040.75;5015062;28;20036;-79
2021/01/27 04:21:25;;;;;;;6.30;3.92;;;;;;;10.70;77.28;100053.94;5013413;28;20026;-79
2021/01/27 04:23:50;;;;;;;7.18;4.05;;;;;;;10.58;77.66;100062.69;5009676;28;20076;-80
2021/01/27 04:26:16;;;;;;;6.88;4.03;;;;;;;10.59;78.04;100061.75;5013711;28;20037;-80
2021/01/27 04:28:41;;;;;;;7.70;4.85;;;;;;;10.55;78.21;100067.34;5013731;28;20040;-80
2021/01/27 04:31:07;;;;;;;8.27;4.90;;;;;;;10.65;78.14;100081.47;5014567;28;20064;-80
2021/01/27 04:33:32;;;;;;;8.07;4.85;;;;;;;10.46;79.16;100068.84;5012397;28;20484;-80
2021/01/27 04:35:57;;;;;;;18.17;4.82;;;;;;;10.69;78.87;100073.25;5013971;28;20025;-80
2021/01/27 04:38:23;;;;;;;8.45;4.63;;;;;;;10.84;77.28;100065.19;5012330;28;20030;-79
2021/01/27 04:40:54;;;;;;;14.32;5.20;;;;;;;10.71;78.36;100052.13;5014390;28;20022;-80
2021/01/27 04:43:28;;;;;;;11.57;4.63;;;;;;;10.56;78.81;100067.22;4994769;28;20089;-80
2021/01/27 04:46:02;;;;;;;9.20;4.95;;;;;;;10.68;78.55;100057.59;5002341;28;20038;-80
2021/01/27 04:48:37;;;;;;;9.45;5.03;;;;;;;10.82;77.85;100051.31;4999325;28;20030;-80
2021/01/27 04:51:08;;;;;;;8.85;4.45;;;;;;;10.73;77.02;100041.53;5014134;28;20029;-80
2021/01/27 04:54:19;;;;;;;13.85;6.07;;;;;;;10.73;78.14;100078.28;5012031;28;20406;-80
2021/01/27 04:57:04;;;;;;;12.02;4.72;;;;;;;10.71;78.27;100084.47;4915262;29;20032;-79
2021/01/27 05:00:11;;;;;;;9.73;5.18;;;;;;;10.80;77.59;100071.63;5008089;28;20053;-79
2021/01/27 05:02:52;;;;;;;8.93;5.07;;;;;;;10.80;77.49;100090.84;5011206;28;20029;-80
2021/01/27 05:05:20;;;;;;;8.98;4.63;;;;;;;10.82;77.58;100093.34;4997069;28;20118;-80
2021/01/27 05:07:46;;;;;;;10.75;5.40;;;;;;;10.71;77.99;100097.59;5012434;28;20036;-80
2021/01/27 05:10:17;;;;;;;9.07;4.72;;;;;;;10.79;77.99;100093.59;5013100;28;20029;-80
2021/01/27 05:12:47;;;;;;;9.85;5.13;;;;;;;10.68;78.20;100094.38;5012717;28;20033;-80
2021/01/27 05:15:13;;;;;;;11.82;5.68;;;;;;;10.64;78.44;100095.53;5014123;28;20050;-81
2021/01/27 05:17:44;;;;;;;10.98;4.95;;;;;;;10.69;77.83;100078.50;5011013;28;20018;-80
2021/01/27 05:20:16;;;;;;;12.63;5.18;;;;;;;10.74;78.40;100072.06;5012677;28;20071;-80
2021/01/27 05:22:42;;;;;;;10.60;4.65;;;;;;;10.87;77.37;100067.59;5013683;28;20028;-80
2021/01/27 05:25:14;;;;;;;11.27;4.90;;;;;;;10.97;77.48;100063.31;5012834;28;20097;-80
2021/01/27 05:27:41;;;;;;;8.73;4.60;;;;;;;10.94;77.50;100071.44;5012414;28;20484;-80
2021/01/27 05:30:30;;;;;;;13.15;5.30;;;;;;;10.98;77.16;100070.25;5013429;28;20025;-80
2021/01/27 05:32:56;;;;;;;11.38;4.85;;;;;;;10.92;77.63;100078.59;5010525;28;20439;-80
2021/01/27 05:35:40;;;;;;;12.13;5.50;;;;;;;10.66;78.36;100080.50;5012474;28;20026;-80
2021/01/27 05:38:29;;;;;;;12.90;5.55;;;;;;;10.95;77.82;100067.84;5013398;28;20030;-80
2021/01/27 05:41:24;;;;;;;10.48;5.18;;;;;;;10.97;77.61;100065.94;5012111;28;20099;-80
2021/01/27 05:43:53;;;;;;;16.48;6.28;;;;;;;10.76;78.37;100065.75;5013194;28;20087;-80
2021/01/27 05:46:34;;;;;;;12.75;6.05;;;;;;;10.73;78.70;100080.91;5012411;28;20041;-80
2021/01/27 05:49:01;;;;;;;13.63;5.82;;;;;;;10.69;78.61;100089.00;5012113;28;20042;-80
2021/01/27 05:51:32;;;;;;;9.43;4.68;;;;;;;10.77;78.57;100082.38;5013005;28;20053;-80
2021/01/27 05:54:00;;;;;;;9.35;4.22;;;;;;;10.84;77.98;100088.81;5012148;28;20025;-80
2021/01/27 05:56:28;;;;;;;7.40;3.78;;;;;;;10.80;78.27;100072.47;5012912;28;20026;-80
2021/01/27 05:58:54;;;;;;;7.93;3.97;;;;;;;10.80;78.62;100069.84;5011903;28;20032;-80
2021/01/27 06:01:39;;;;;;;6.65;3.40;;;;;;;10.79;78.92;100054.19;5010254;28;20021;-80
2021/01/27 06:04:10;;;;;;;4.10;2.65;;;;;;;10.87;78.51;100038.69;5012691;28;20088;-80
2021/01/27 06:06:38;;;;;;;5.73;3.60;;;;;;;10.84;78.24;100033.66;5011088;28;20038;-80
2021/01/27 06:09:06;;;;;;;6.85;3.28;;;;;;;10.86;78.42;100039.63;4992989;28;20290;-80
2021/01/27 06:11:32;;;;;;;4.13;2.28;;;;;;;10.78;78.86;100057.75;5012592;28;20068;-80
2021/01/27 06:14:06;;;;;;;3.25;2.03;;;;;;;10.78;78.61;100063.00;5013015;28;20092;-80
2021/01/27 06:16:37;;;;;;;4.30;2.83;;;;;;;10.78;78.78;100056.00;5010754;28;20036;-80
2021/01/27 06:19:17;;;;;;;3.55;2.10;;;;;;;10.80;78.31;100054.09;5011250;28;20067;-81
2021/01/27 06:21:53;;;;;;;4.20;1.83;;;;;;;10.67;78.92;100066.44;5009686;28;20037;-80
2021/01/27 06:24:44;;;;;;;2.35;1.70;;;;;;;10.81;78.50;100062.81;5011422;28;20060;-80
2021/01/27 06:27:28;;;;;;;3.63;1.43;;;;;;;10.85;78.36;100062.44;5011821;28;20488;-80
2021/01/27 06:30:58;;;;;;;1.88;1.48;;;;;;;10.88;78.51;100061.38;4992658;28;20299;-80
2021/01/27 06:33:45;;;;;;;2.80;1.60;;;;;;;10.83;78.48;100066.97;4964698;28;20045;-80
2021/01/27 06:36:25;;;;;;;3.67;1.50;;;;;;;10.74;78.92;100059.78;5011195;28;20368;-80
2021/01/27 06:39:33;;;;;;;5.72;1.48;;;;;;;10.59;79.40;100072.25;4992592;28;20030;-80
2021/01/27 06:42:37;;;;;;;2.25;1.40;;;;;;;10.66;79.48;100075.25;4998857;28;20053;-80
2021/01/27 06:45:24;;;;;;;3.00;1.60;;;;;;;10.55;79.47;100072.59;5012015;28;20029;-80
2021/01/27 06:48:01;;;;;;;2.42;1.48;;;;;;;10.52;80.00;100078.91;5009555;28;20029;-80
2021/01/27 06:50:39;;;;;;;1.63;1.40;;;;;;;10.47;79.84;100070.53;5012167;28;20030;-80
2021/01/27 06:53:29;;;;;;;1.50;1.30;;;;;;;10.82;79.14;100070.56;5011548;28;20452;-80
2021/01/27 06:56:01;;;;;;;3.03;1.40;;;;;;;10.63;78.94;100078.13;5012008;28;20099;-80
2021/01/27 06:58:45;;;;;;;2.15;1.38;;;;;;;10.70;79.26;100082.81;5010260;28;20034;-80
2021/01/27 07:01:55;;;;;;;1.80;1.33;;;;;;;10.73;78.83;100080.91;5009960;28;20120;-80
2021/01/27 07:04:44;;;;;;;1.92;1.15;;;;;;;10.74;79.18;100082.56;4969527;28;20480;-80
2021/01/27 07:07:39;;;;;;;1.25;1.15;;;;;;;10.87;78.81;100083.34;4970187;28;20031;-80
2021/01/27 07:10:39;;;;;;;1.90;1.70;;;;;;;10.85;78.90;100074.75;4986648;28;20092;-80
2021/01/27 07:13:32;;;;;;;1.30;1.17;;;;;;;10.86;78.72;100081.66;5012885;28;20037;-81
2021/01/27 07:16:06;;;;;;;1.45;1.35;;;;;;;10.86;78.35;100072.00;5012246;28;20037;-80
2021/01/27 07:19:01;;;;;;;2.70;1.27;;;;;;;10.87;78.63;100076.31;5008358;28;20120;-80
2021/01/27 07:22:01;;;;;;;1.98;0.90;;;;;;;10.95;78.72;100078.34;5011700;28;20385;-78
2021/01/27 07:24:30;;;;;;;1.13;1.02;;;;;;;11.07;78.24;100079.22;4980440;28;20047;-79
2021/01/27 07:27:05;;;;;;;1.40;1.25;;;;;;;11.25;77.70;100080.47;5017635;28;20055;-79
2021/01/27 07:29:56;;;;;;;1.35;1.23;;;;;;;11.27;77.21;100082.97;5011486;28;20546;-79
2021/01/27 07:32:34;;;;;;;1.40;1.30;;;;;;;10.96;78.00;100080.06;5016887;28;20041;-79
2021/01/27 07:35:06;;;;;;;1.30;1.00;;;;;;;11.17;77.21;100084.63;5010308;28;20057;-79
2021/01/27 07:37:38;;;;;;;1.60;1.17;;;;;;;11.18;77.53;100081.91;5010733;28;20034;-79
2021/01/27 07:40:12;;;;;;;2.17;1.33;;;;;;;11.01;77.67;100087.56;5010644;28;20113;-79
2021/01/27 07:42:57;;;;;;;1.92;1.38;;;;;;;11.11;77.25;100092.00;5010724;28;20160;-79
2021/01/27 07:45:27;;;;;;;1.67;1.38;;;;;;;11.21;77.38;100096.59;5011161;28;20053;-79
2021/01/27 07:48:08;;;;;;;2.15;1.10;;;;;;;11.18;77.55;100099.47;5012711;28;20022;-79
2021/01/27 07:50:34;;;;;;;4.20;1.40;;;;;;;11.09;77.69;100109.69;5015114;28;20072;-79
2021/01/27 07:53:12;;;;;;;2.35;1.60;;;;;;;11.23;77.29;100115.69;5013303;28;20026;-79
2021/01/27 07:56:03;;;;;;;1.83;1.00;;;;;;;11.26;77.00;100110.22;5012952;28;20036;-79
2021/01/27 07:58:34;;;;;;;8.63;1.83;;;;;;;11.10;77.84;100111.38;5013946;28;20110;-79
2021/01/27 08:01:19;;;;;;;3.47;1.58;;;;;;;11.17;77.48;100117.00;5013992;28;20488;-79
2021/01/27 08:04:03;;;;;;;3.47;1.80;;;;;;;11.24;77.51;100114.75;5014280;28;20038;-79
2021/01/27 08:06:38;;;;;;;2.92;1.65;;;;;;;11.32;77.35;100120.28;5013861;28;20025;-79
2021/01/27 08:09:05;;;;;;;2.47;1.95;;;;;;;11.35;76.97;100117.41;5014590;28;20040;-80
2021/01/27 08:11:40;;;;;;;2.30;1.75;;;;;;;11.36;77.01;100126.97;5023912;28;20029;-80
2021/01/27 08:14:10;;;;;;;7.43;2.33;;;;;;;11.23;77.37;100120.97;5027615;28;20029;-80
2021/01/27 08:16:43;;;;;;;5.53;2.13;;;;;;;11.24;77.72;100127.91;5017895;28;20040;-80
2021/01/27 08:19:11;;;;;;;1.90;1.60;;;;;;;11.29;77.17;100117.88;5014449;28;20033;-80
2021/01/27 08:21:46;;;;;;;2.30;1.67;;;;;;;11.23;77.98;100126.22;5012450;28;20033;-80
2021/01/27 08:24:36;;;;;;;4.00;2.33;;;;;;;11.14;78.35;100124.25;5025871;28;20064;-79
2021/01/27 08:27:10;;;;;;;2.58;1.88;;;;;;;11.17;78.15;100129.31;5020595;28;20026;-80
2021/01/27 08:29:54;;;;;;;2.33;1.90;;;;;;;11.18;78.36;100128.38;5007567;28;20165;-80
2021/01/27 08:32:43;;;;;;;2.92;2.33;;;;;;;11.21;78.32;100141.25;5007045;28;20129;-84
2021/01/27 08:35:32;;;;;;;3.15;2.00;;;;;;;11.20;78.32;100147.47;5006750;28;20049;-80
2021/01/27 08:38:21;;;;;;;3.55;2.55;;;;;;;11.36;77.80;100155.06;4996639;28;20033;-80
2021/01/27 08:40:47;;;;;;;2.13;1.80;;;;;;;11.24;78.03;100154.19;5006292;28;21675;-79
2021/01/27 08:43:15;;;;;;;2.40;1.88;;;;;;;11.25;77.93;100156.66;5007168;28;20065;-80
2021/01/27 08:45:40;;;;;;;3.60;2.05;;;;;;;11.24;77.98;100155.00;5010076;28;20025;-79
2021/01/27 08:48:06;;;;;;;2.50;2.17;;;;;;;11.25;78.22;100161.94;5012931;28;20057;-79
2021/01/27 08:50:52;;;;;;;2.13;1.92;;;;;;;11.27;78.12;100164.44;5009611;28;20026;-80
2021/01/27 08:53:20;;;;;;;3.30;2.20;;;;;;;11.28;77.99;100158.25;5014745;28;20284;-81
2021/01/27 08:55:46;;;;;;;2.75;1.70;;;;;;;11.30;77.79;100153.72;5012894;28;20025;-80
2021/01/27 08:58:18;;;;;;;1.92;1.73;;;;;;;11.56;77.46;100148.28;5011430;28;20442;-80
2021/01/27 09:00:44;;;;;;;3.00;2.15;;;;;;;11.63;76.87;100160.84;5017082;28;20052;-80
2021/01/27 09:03:42;;;;;;;2.90;2.00;;;;;;;11.68;76.79;100163.13;5015794;28;20037;-80
2021/01/27 09:06:29;;;;;;;2.40;1.88;;;;;;;11.68;76.65;100152.59;5012663;28;20380;-80
2021/01/27 09:09:07;;;;;;;2.65;1.88;;;;;;;11.49;76.96;100164.53;5016717;28;20392;-92
2021/01/27 09:11:32;;;;;;;3.00;1.80;;;;;;;11.44;77.59;100155.31;5015457;28;20484;-83
2021/01/27 09:14:04;;;;;;;1.70;1.58;;;;;;;11.42;77.56;100168.56;5020469;28;20105;-79
2021/01/27 09:16:30;;;;;;;2.35;1.90;;;;;;;11.40;78.03;100164.38;5022561;28;20026;-79
2021/01/27 09:19:23;;;;;;;1.88;1.65;;;;;;;11.17;78.35;100166.09;5012475;28;20850;-79
2021/01/27 09:21:55;;;;;;;1.38;1.27;;;;;;;11.39;78.03;100168.78;5013052;28;20094;-85
2021/01/27 09:24:25;;;;;;;1.60;1.50;;;;;;;11.35;77.70;100175.22;5013198;28;20405;-80
2021/01/27 09:26:53;;;;;;;1.38;1.27;;;;;;;11.43;78.14;100172.03;5018658;28;20038;-80
2021/01/27 09:29:25;;;;;;;2.17;1.80;;;;;;;11.46;77.93;100172.63;5014945;28;20030;-79
2021/01/27 09:31:51;;;;;;;2.45;1.48;;;;;;;11.48;77.71;100173.34;5007287;28;20033;-78
2021/01/27 09:34:26;;;;;;;1.35;1.25;;;;;;;11.47;77.74;100176.97;5019875;28;20048;-79
2021/01/27 09:37:08;;;;;;;1.95;0.95;;;;;;;11.47;78.11;100179.59;5013413;28;20046;-80
2021/01/27 09:39:36;;;;;;;0.80;0.80;;;;;;;11.43;77.43;100188.66;5012227;28;20017;-80
2021/01/27 09:42:20;;;;;;;1.13;0.80;;;;;;;11.48;77.81;100190.94;5020317;28;20028;-79
2021/01/27 09:45:15;;;;;;;0.98;0.80;;;;;;;11.51;77.78;100193.31;5024682;28;20568;-82
2021/01/27 09:47:43;;;;;;;0.85;0.82;;;;;;;11.47;77.66;100195.34;5007423;28;20057;-82
2021/01/27 09:50:10;;;;;;;0.35;0.35;;;;;;;11.42;77.57;100194.84;5012960;28;20025;-81
2021/01/27 09:52:36;;;;;;;1.20;0.82;;;;;;;11.54;78.16;100195.72;5009387;28;20037;-81
2021/01/27 09:55:08;;;;;;;1.10;0.82;;;;;;;11.52;78.00;100189.75;5008969;28;20034;-81
2021/01/27 09:57:36;;;;;;;0.73;0.70;;;;;;;11.49;78.06;100196.09;5015448;28;20575;-80
2021/01/27 10:00:06;;;;;;;1.42;0.70;;;;;;;11.52;77.26;100201.09;5009776;28;20095;-81
2021/01/27 10:02:33;;;;;;;1.98;0.80;;;;;;;11.61;77.49;100193.47;5004310;28;20104;-81
2021/01/27 10:05:00;;;;;;;0.82;0.70;;;;;;;11.55;77.41;100191.28;5009705;28;20058;-80
2021/01/27 10:07:34;;;;;;;0.80;0.60;;;;;;;11.55;77.95;100191.28;5009865;28;20136;-82
2021/01/27 10:10:13;;;;;;;2.17;0.80;;;;;;;11.67;77.42;100200.88;5006793;28;20030;-82
2021/01/27 10:12:39;;;;;;;0.70;0.60;;;;;;;11.70;77.49;100204.13;5012677;28;20118;-81
2021/01/27 10:15:32;;;;;;;1.63;0.80;;;;;;;11.70;77.25;100201.50;5015837;23;20669;-84
2021/01/27 10:18:09;;;;;;;2.55;0.80;;;;;;;11.57;77.94;100203.41;4983318;28;20026;-84
2021/01/27 10:20:37;;;;;;;1.45;0.93;;;;;;;11.58;77.92;100202.44;4993639;28;20029;-85
2021/01/27 10:23:13;;;;;;;2.67;0.73;;;;;;;11.63;77.90;100217.84;4996047;28;20025;-84
2021/01/27 10:25:41;;;;;;;0.80;0.80;;;;;;;11.57;78.19;100215.69;4979816;28;20102;-84
2021/01/27 10:28:22;;;;;;;1.75;1.02;;;;;;;11.53;78.47;100217.69;4990360;28;20039;-84
2021/01/27 10:30:58;;;;;;;1.33;1.10;;;;;;;11.51;78.27;100223.09;4993913;28;20481;-84
2021/01/27 10:33:38;;;;;;;1.08;0.98;;;;;;;11.49;78.66;100217.13;4987226;28;20416;-84
2021/01/27 10:36:27;;;;;;;0.95;0.95;;;;;;;11.51;78.72;100209.09;4990564;28;20508;-84
2021/01/27 10:39:13;;;;;;;1.42;1.27;;;;;;;11.54;78.52;100224.66;4991048;28;20056;-84
2021/01/27 10:41:39;;;;;;;1.05;0.82;;;;;;;11.63;78.52;100218.72;4984909;28;20041;-84
2021/01/27 10:44:29;;;;;;;1.42;1.33;;;;;;;11.59;78.62;100204.13;4988380;28;20053;-83
2021/01/27 10:47:00;;;;;;;1.42;0.95;;;;;;;11.46;78.64;100205.97;4989537;28;20103;-84
2021/01/27 10:49:26;;;;;;;1.15;1.00;;;;;;;11.66;78.51;100207.09;4991551;28;20507;-84
2021/01/27 10:51:52;;;;;;;0.80;0.80;;;;;;;11.72;78.40;100206.63;4990380;28;20041;-84
2021/01/27 10:54:21;;;;;;;0.90;0.80;;;;;;;11.80;78.15;100206.06;4992720;28;20035;-85
2021/01/27 10:56:51;;;;;;;1.20;1.00;;;;;;;11.86;78.44;100206.41;4986883;28;20034;-85
2021/01/27 10:59:17;;;;;;;1.10;1.00;;;;;;;11.77;78.33;100194.00;4991293;28;20485;-84
2021/01/27 11:01:42;;;;;;;1.05;0.95;;;;;;;11.81;78.44;100205.94;4987796;28;20026;-84
2021/01/27 11:04:07;;;;;;;1.55;0.90;;;;;;;11.94;78.21;100210.28;4990740;28;20073;-84
2021/01/27 11:06:33;;;;;;;0.80;0.80;;;;;;;11.97;77.67;100202.19;4987746;28;20056;-84
2021/01/27 11:08:58;;;;;;;0.70;0.70;;;;;;;11.90;77.92;100192.09;4987331;28;20041;-84
2021/01/27 11:11:24;;;;;;;2.20;0.90;;;;;;;12.08;78.01;100208.28;4989975;28;20102;-85
2021/01/27 11:13:49;;;;;;;2.65;1.10;;;;;;;11.97;78.08;100204.81;4986897;28;20057;-82
2021/01/27 11:16:15;;;;;;;5.55;1.25;;;;;;;11.95;78.08;100198.81;5047664;22;20495;-80
2021/01/27 11:18:41;;;;;;;1.52;1.10;;;;;;;11.96;78.12;100198.69;5050184;28;20029;-81
2021/01/27 11:21:08;;;;;;;1.30;1.20;;;;;;;12.00;77.98;100205.38;5050502;28;20058;-80
2021/01/27 11:23:33;;;;;;;1.98;1.10;;;;;;;12.02;77.89;100197.38;5053373;28;20626;-80
2021/01/27 11:25:59;;;;;;;1.40;1.30;;;;;;;11.99;78.04;100203.72;5037791;28;20026;-80
2021/01/27 11:28:25;;;;;;;5.03;1.60;;;;;;;12.11;77.98;100204.56;5032769;28;20038;-80
2021/01/27 11:30:52;;;;;;;1.70;1.45;;;;;;;11.86;78.23;100214.31;5034473;28;20026;-80
2021/01/27 11:33:18;;;;;;;2.40;1.55;;;;;;;11.90;78.62;100214.94;5029070;28;20052;-80
2021/01/27 11:35:44;;;;;;;2.33;1.83;;;;;;;11.85;78.61;100206.56;5031088;28;20594;-80
2021/01/27 11:38:09;;;;;;;18.10;1.60;;;;;;;11.80;78.92;100209.53;5031611;28;20197;-80
2021/01/27 11:40:35;;;;;;;6.22;1.50;;;;;;;11.65;79.51;100210.69;5034297;28;20112;-80
2021/01/27 11:43:00;;;;;;;1.40;1.30;;;;;;;11.78;79.61;100211.44;5033135;28;20026;-80
2021/01/27 11:45:25;;;;;;;3.05;1.58;;;;;;;11.65;80.32;100202.78;5035148;28;20032;-80
2021/01/27 11:47:51;;;;;;;2.35;1.40;;;;;;;11.69;79.52;100205.09;5029849;28;20088;-82
2021/01/27 11:50:20;;;;;;;1.83;1.60;;;;;;;11.84;79.24;100200.44;5032195;28;20029;-83
2021/01/27 11:52:47;;;;;;;1.95;1.60;;;;;;;11.97;79.02;100197.75;5030847;28;20487;-82